createdAt,value
2018-02-07T00:01:57.715Z,80.70
2018-02-07T00:04:25.934Z,80.50
2018-02-07T00:06:54.112Z,80.90
2018-02-07T00:09:23.117Z,80.50
2018-02-07T00:11:52.091Z,80.30
2018-02-07T00:14:21.069Z,79.30
2018-02-07T00:16:50.074Z,79.40
2018-02-07T00:19:18.290Z,79.30
2018-02-07T00:21:46.592Z,79.10
2018-02-07T00:24:14.787Z,79.30
2018-02-07T00:26:43.783Z,79.20
2018-02-07T00:29:11.983Z,78.80
2018-02-07T00:31:40.212Z,78.70
2018-02-07T00:34:08.536Z,78.80
2018-02-07T00:36:37.577Z,77.90
2018-02-07T00:39:05.797Z,77.80
2018-02-07T00:41:33.998Z,77.70
2018-02-07T00:44:02.980Z,78.80
2018-02-07T00:46:31.181Z,78.70
2018-02-07T00:48:59.400Z,79.50
2018-02-07T00:51:27.608Z,80.20
2018-02-07T00:53:56.573Z,81.50
2018-02-07T00:56:24.769Z,81.50
2018-02-07T00:58:53.005Z,81.20
2018-02-07T01:01:21.986Z,80.10
2018-02-07T01:03:50.180Z,80.10
2018-02-07T01:06:19.784Z,77.90
2018-02-07T01:08:48.020Z,77.80
2018-02-07T01:11:16.236Z,77.50
2018-02-07T01:13:44.445Z,77.30
2018-02-07T01:16:13.395Z,77.60
2018-02-07T01:18:41.605Z,77.60
2018-02-07T01:21:09.784Z,77.70
2018-02-07T01:23:38.768Z,77.20
2018-02-07T01:26:07.011Z,77.20
2018-02-07T01:28:35.221Z,76.80
2018-02-07T01:31:03.437Z,76.50
2018-02-07T01:33:32.157Z,76.20
2018-02-07T01:36:00.407Z,75.70
2018-02-07T01:38:28.634Z,75.90
2018-02-07T01:40:56.823Z,76.10
2018-02-07T01:43:25.017Z,75.70
2018-02-07T01:45:53.967Z,75.60
2018-02-07T01:48:22.189Z,75.60
2018-02-07T01:50:51.125Z,75.10
2018-02-07T01:53:19.305Z,75.10
2018-02-07T01:55:47.773Z,74.50
2018-02-07T01:58:15.963Z,74.40
2018-02-07T02:00:44.165Z,74.30
2018-02-07T02:03:12.351Z,74.60
2018-02-07T02:05:41.325Z,74.50
2018-02-07T02:08:09.520Z,74.40
2018-02-07T02:10:37.735Z,74.80
2018-02-07T02:13:05.948Z,74.70
2018-02-07T02:15:34.155Z,75.10
2018-02-07T02:18:02.347Z,74.40
2018-02-07T02:20:31.456Z,73.90
2018-02-07T02:22:59.664Z,73.90
2018-02-07T02:25:27.879Z,74.10
2018-02-07T02:27:56.842Z,70.60
2018-02-07T02:30:25.051Z,70.50
2018-02-07T02:32:54.084Z,69.30
2018-02-07T02:35:22.278Z,69.30
2018-02-07T02:37:50.522Z,68.20
2018-02-07T02:40:18.731Z,68.00
2018-02-07T02:42:46.951Z,67.80
2018-02-07T02:45:15.979Z,66.80
2018-02-07T02:47:44.180Z,67.40
2018-02-07T02:50:12.421Z,66.70
2018-02-07T02:52:40.631Z,66.30
2018-02-07T02:55:08.816Z,66.90
2018-02-07T02:57:36.993Z,64.90
2018-02-07T03:00:05.952Z,64.20
2018-02-07T03:02:34.215Z,64.30
2018-02-07T03:05:02.390Z,63.20
2018-02-07T03:07:30.563Z,62.50
2018-02-07T03:09:58.735Z,62.60
2018-02-07T03:12:27.028Z,62.10
2018-02-07T03:14:55.238Z,61.40
2018-02-07T03:17:23.422Z,62.60
2018-02-07T03:19:51.623Z,62.20
2018-02-07T03:22:20.605Z,63.70
2018-02-07T03:24:48.815Z,63.60
2018-02-07T03:27:17.032Z,63.60
2018-02-07T03:29:45.214Z,64.30
2018-02-07T03:32:13.405Z,64.60
2018-02-07T03:34:42.421Z,65.10
2018-02-07T03:37:10.640Z,65.10
2018-02-07T03:39:38.902Z,65.90
2018-02-07T03:42:07.089Z,67.20
2018-02-07T03:44:35.261Z,68.60
2018-02-07T03:47:03.445Z,69.30
2018-02-07T03:49:31.665Z,69.30
2018-02-07T03:52:00.657Z,69.30
2018-02-07T03:54:29.611Z,69.70
2018-02-07T03:56:57.860Z,69.70
2018-02-07T03:59:26.036Z,70.20
2018-02-07T04:01:54.314Z,69.80
2018-02-07T04:04:22.556Z,70.10
2018-02-07T04:06:51.505Z,69.60
2018-02-07T04:09:19.678Z,69.70
2018-02-07T04:11:47.872Z,70.40
2018-02-07T04:14:16.459Z,70.70
2018-02-07T04:16:44.684Z,71.00
2018-02-07T04:19:12.842Z,71.20
2018-02-07T04:21:41.028Z,71.20
2018-02-07T04:24:09.348Z,71.20
2018-02-07T04:26:37.522Z,71.30
2018-02-07T04:29:05.711Z,71.30
2018-02-07T04:31:34.566Z,71.60
2018-02-07T04:34:04.172Z,71.50
2018-02-07T04:36:33.543Z,71.50
2018-02-07T04:39:04.068Z,71.90
2018-02-07T04:41:33.712Z,71.90
2018-02-07T04:44:04.122Z,72.60
2018-02-07T04:46:34.460Z,71.50
2018-02-07T04:49:03.367Z,72.10
2018-02-07T04:51:31.650Z,71.30
2018-02-07T04:53:59.844Z,71.40
2018-02-07T04:56:28.010Z,72.20
2018-02-07T04:58:56.210Z,72.30
2018-02-07T05:01:24.391Z,72.10
2018-02-07T05:03:52.567Z,72.20
2018-02-07T05:06:21.561Z,72.70
2018-02-07T05:08:49.795Z,72.60
2018-02-07T05:11:18.003Z,72.70
2018-02-07T05:13:46.191Z,72.90
2018-02-07T05:16:15.173Z,72.20
2018-02-07T05:18:43.418Z,72.80
2018-02-07T05:21:11.611Z,73.00
2018-02-07T05:23:40.822Z,74.20
2018-02-07T05:26:09.036Z,74.20
2018-02-07T05:28:37.240Z,75.20
2018-02-07T05:31:05.505Z,75.10
2018-02-07T05:33:33.793Z,74.40
2018-02-07T05:36:01.975Z,73.30
2018-02-07T05:38:30.165Z,73.30
2018-02-07T05:40:59.841Z,72.20
2018-02-07T05:43:28.081Z,72.10
2018-02-07T05:45:57.041Z,71.70
2018-02-07T05:48:25.258Z,71.70
2018-02-07T05:50:54.238Z,72.10
2018-02-07T05:53:23.219Z,71.90
2018-02-07T05:55:51.399Z,71.90
2018-02-07T05:58:19.728Z,72.20
2018-02-07T06:00:47.929Z,72.20
2018-02-07T06:03:16.114Z,72.20
2018-02-07T06:05:44.305Z,72.10
2018-02-07T06:08:12.534Z,71.20
2018-02-07T06:10:40.744Z,71.80
2018-02-07T06:13:08.957Z,72.30
2018-02-07T06:15:37.156Z,72.20
2018-02-07T06:18:05.326Z,72.30
2018-02-07T06:20:33.564Z,72.20
2018-02-07T06:23:02.565Z,71.90
2018-02-07T06:25:31.542Z,73.30
2018-02-07T06:27:59.728Z,73.20
2018-02-07T06:30:28.678Z,74.00
2018-02-07T06:32:57.626Z,74.40
2018-02-07T06:35:25.891Z,74.30
2018-02-07T06:37:54.904Z,75.70
2018-02-07T06:40:23.110Z,75.30
2018-02-07T06:42:51.340Z,75.60
2018-02-07T06:45:20.319Z,76.00
2018-02-07T06:47:48.560Z,76.00
2018-02-07T06:50:16.772Z,75.90
2018-02-07T06:52:45.777Z,76.10
2018-02-07T06:55:14.722Z,76.40
2018-02-07T06:57:42.943Z,76.40
2018-02-07T07:02:50.377Z,77.00
2018-02-07T07:05:19.344Z,77.80
2018-02-07T07:07:48.338Z,78.10
2018-02-07T07:10:17.347Z,76.70
2018-02-07T07:12:45.579Z,76.70
2018-02-07T07:15:14.553Z,76.50
2018-02-07T07:17:42.811Z,76.50
2018-02-07T07:20:11.217Z,76.10
2018-02-07T07:22:39.452Z,76.30
2018-02-07T07:25:08.439Z,76.20
2018-02-07T07:27:37.413Z,76.10
2018-02-07T07:30:06.405Z,76.20
2018-02-07T07:32:34.630Z,76.20
2018-02-07T07:35:03.599Z,76.90
2018-02-07T07:37:32.581Z,77.50
2018-02-07T07:40:01.565Z,77.40
2018-02-07T07:42:30.691Z,77.90
2018-02-07T07:44:59.686Z,77.90
2018-02-07T07:47:28.710Z,77.90
2018-02-07T07:49:56.981Z,77.90
2018-02-07T07:52:25.226Z,78.00
2018-02-07T07:54:54.220Z,78.60
2018-02-07T07:57:22.469Z,78.60
2018-02-07T07:59:54.024Z,78.60
2018-02-07T08:02:22.244Z,78.60
2018-02-07T08:04:50.476Z,79.40
2018-02-07T08:07:18.731Z,78.60
2018-02-07T08:09:46.944Z,78.00
2018-02-07T08:12:15.911Z,76.40
2018-02-07T08:14:44.109Z,76.30
2018-02-07T08:17:12.322Z,75.70
2018-02-07T08:19:40.546Z,74.90
2018-02-07T08:22:08.768Z,74.30
2018-02-07T08:24:36.978Z,73.60
2018-02-07T08:27:05.236Z,73.30
2018-02-07T08:29:33.434Z,72.50
2018-02-07T08:32:01.685Z,71.30
2018-02-07T08:34:29.927Z,71.20
2018-02-07T08:36:58.888Z,68.90
2018-02-07T08:39:27.087Z,69.40
2018-02-07T08:41:55.306Z,68.60
2018-02-07T08:44:23.525Z,67.50
2018-02-07T08:46:51.739Z,67.90
2018-02-07T08:49:20.688Z,67.00
2018-02-07T08:51:49.662Z,67.20
2018-02-07T08:54:17.884Z,67.20
2018-02-07T08:56:46.129Z,66.50
2018-02-07T08:59:14.339Z,66.30
2018-02-07T09:01:43.370Z,66.30
2018-02-07T09:04:11.588Z,66.30
2018-02-07T09:06:39.795Z,65.00
2018-02-07T09:09:08.760Z,65.10
2018-02-07T09:11:37.144Z,65.10
2018-02-07T09:14:06.847Z,65.20
2018-02-07T09:16:35.019Z,65.20
2018-02-07T09:19:03.212Z,64.80
2018-02-07T09:21:31.464Z,65.30
2018-02-07T09:23:59.671Z,64.70
2018-02-07T09:26:28.628Z,64.50
2018-02-07T09:28:56.826Z,64.40
2018-02-07T09:31:25.033Z,63.90
2018-02-07T09:33:53.231Z,63.50
2018-02-07T09:36:21.451Z,64.00
2018-02-07T09:38:49.626Z,61.60
2018-02-07T09:41:17.819Z,62.20
2018-02-07T09:43:46.770Z,63.10
2018-02-07T09:46:14.930Z,63.10
2018-02-07T09:48:43.131Z,60.90
2018-02-07T09:51:11.321Z,60.30
2018-02-07T09:53:39.535Z,59.60
2018-02-07T09:56:07.729Z,58.20
2018-02-07T09:58:35.903Z,56.80
2018-02-07T10:01:04.126Z,57.00
2018-02-07T10:03:33.070Z,56.40
2018-02-07T10:06:01.240Z,56.40
2018-02-07T10:08:29.419Z,55.40
2018-02-07T10:10:57.996Z,54.70
2018-02-07T10:13:26.200Z,54.70
2018-02-07T10:15:54.392Z,55.20
2018-02-07T10:18:22.574Z,53.90
2018-02-07T10:20:50.754Z,54.20
2018-02-07T10:23:18.961Z,54.80
2018-02-07T10:25:47.186Z,54.80
2018-02-07T10:28:15.379Z,54.20
2018-02-07T10:30:43.544Z,50.90
2018-02-07T10:33:11.726Z,51.70
2018-02-07T10:35:39.914Z,51.80
2018-02-07T10:38:08.892Z,52.80
2018-02-07T10:40:37.064Z,52.30
2018-02-07T10:43:06.025Z,51.00
2018-02-07T10:45:34.248Z,50.80
2018-02-07T10:48:03.207Z,50.20
2018-02-07T10:50:31.471Z,50.10
2018-02-07T10:52:59.725Z,49.70
2018-02-07T10:55:27.925Z,49.50
2018-02-07T10:57:56.118Z,49.50
2018-02-07T11:00:24.318Z,49.20
2018-02-07T11:02:52.579Z,48.60
2018-02-07T11:05:21.640Z,47.90
2018-02-07T11:07:49.889Z,47.90
2018-02-07T11:10:18.492Z,46.50
2018-02-07T11:12:46.703Z,42.80
2018-02-07T11:15:14.924Z,41.70
2018-02-07T11:17:43.172Z,43.40
2018-02-07T11:20:11.380Z,40.90
2018-02-07T11:22:39.634Z,42.20
2018-02-07T11:25:08.633Z,43.60
2018-02-07T11:27:37.623Z,44.30
2018-02-07T11:30:06.598Z,41.90
2018-02-07T11:32:34.777Z,41.80
2018-02-07T11:35:03.015Z,43.40
2018-02-07T11:37:31.414Z,44.30
2018-02-07T11:39:59.605Z,39.50
2018-02-07T11:42:27.830Z,40.60
2018-02-07T11:44:56.113Z,41.40
2018-02-07T11:47:24.342Z,42.00
2018-02-07T11:49:52.576Z,40.90
2018-02-07T11:52:20.792Z,42.40
2018-02-07T11:54:49.050Z,41.20
2018-02-07T11:57:17.272Z,40.60
2018-02-07T11:59:45.502Z,41.50
2018-02-07T12:02:13.680Z,40.70
2018-02-07T12:04:42.026Z,41.60
2018-02-07T12:07:10.286Z,41.80
2018-02-07T12:09:38.531Z,39.80
2018-02-07T12:12:07.358Z,37.70
2018-02-07T12:14:35.635Z,36.80
2018-02-07T12:17:03.838Z,38.30
2018-02-07T12:19:32.144Z,38.60
2018-02-07T12:22:00.424Z,39.50
2018-02-07T12:24:29.425Z,38.80
2018-02-07T12:26:58.401Z,37.20
2018-02-07T12:29:26.612Z,37.20
2018-02-07T12:31:55.587Z,39.30
2018-02-07T12:34:23.813Z,39.30
2018-02-07T12:36:52.024Z,39.40
2018-02-07T12:39:20.623Z,39.80
2018-02-07T12:41:49.625Z,41.00
2018-02-07T12:44:18.631Z,40.60
2018-02-07T12:46:47.668Z,42.00
2018-02-07T12:49:15.901Z,41.90
2018-02-07T12:51:44.914Z,43.40
2018-02-07T12:54:13.093Z,43.30
2018-02-07T12:56:41.294Z,43.90
2018-02-07T12:59:09.704Z,44.50
2018-02-07T13:01:37.895Z,44.30
2018-02-07T13:04:06.898Z,46.50
2018-02-07T13:06:35.111Z,46.50
2018-02-07T13:09:03.324Z,45.80
2018-02-07T13:11:31.545Z,46.80
2018-02-07T13:13:59.747Z,45.20
2018-02-07T13:16:27.930Z,46.60
2018-02-07T13:18:56.325Z,47.10
2018-02-07T13:21:24.500Z,46.30
2018-02-07T13:23:52.682Z,47.50
2018-02-07T13:26:20.894Z,48.20
2018-02-07T13:28:49.070Z,48.30
2018-02-07T13:31:17.291Z,47.90
2018-02-07T13:33:45.526Z,48.70
2018-02-07T13:36:13.693Z,48.40
2018-02-07T13:38:42.682Z,48.70
2018-02-07T13:41:10.823Z,48.70
2018-02-07T13:43:39.076Z,49.80
2018-02-07T13:46:07.335Z,49.10
2018-02-07T13:48:35.553Z,50.00
2018-02-07T13:51:03.733Z,50.30
2018-02-07T13:53:31.914Z,50.40
2018-02-07T13:56:00.128Z,50.00
2018-02-07T13:58:28.312Z,50.20
2018-02-07T14:00:56.587Z,50.30
2018-02-07T14:03:24.746Z,51.20
2018-02-07T14:05:52.935Z,51.60
2018-02-07T14:08:21.138Z,51.90
2018-02-07T14:10:49.369Z,51.50
2018-02-07T14:13:17.548Z,52.50
2018-02-07T14:15:45.731Z,52.90
2018-02-07T14:18:14.532Z,53.30
2018-02-07T14:20:42.762Z,53.10
2018-02-07T14:23:11.714Z,53.60
2018-02-07T14:25:39.901Z,53.50
2018-02-07T14:28:08.072Z,53.10
2018-02-07T14:30:36.260Z,53.20
2018-02-07T14:33:04.487Z,53.90
2018-02-07T14:35:32.682Z,53.00
2018-02-07T14:38:00.857Z,51.90
2018-02-07T14:40:29.023Z,51.50
2018-02-07T14:42:57.213Z,52.00
2018-02-07T14:45:25.426Z,52.30
2018-02-07T14:47:53.599Z,52.70
2018-02-07T14:50:22.418Z,52.10
2018-02-07T14:52:50.616Z,52.90
2018-02-07T14:55:18.790Z,52.20
2018-02-07T14:57:47.014Z,52.70
2018-02-07T15:00:15.190Z,52.70
2018-02-07T15:02:44.139Z,52.90
2018-02-07T15:05:12.304Z,52.80
2018-02-07T15:07:40.494Z,53.30
2018-02-07T15:10:08.706Z,52.80
2018-02-07T15:12:36.878Z,52.10
2018-02-07T15:15:05.179Z,52.40
2018-02-07T15:17:33.427Z,52.80
2018-02-07T15:20:01.629Z,53.40
2018-02-07T15:22:30.615Z,54.50
2018-02-07T15:24:58.832Z,54.40
2018-02-07T15:27:27.107Z,54.80
2018-02-07T15:29:55.296Z,56.10
2018-02-07T15:32:23.484Z,57.00
2018-02-07T15:34:52.502Z,58.90
2018-02-07T15:37:20.728Z,58.80
2018-02-07T15:39:48.909Z,58.60
2018-02-07T15:42:17.162Z,58.40
2018-02-07T15:44:46.174Z,59.00
2018-02-07T15:47:14.391Z,59.00
2018-02-07T15:49:42.576Z,59.10
2018-02-07T15:52:10.902Z,59.50
2018-02-07T15:54:39.110Z,60.10
2018-02-07T15:57:07.472Z,60.70
2018-02-07T15:59:35.735Z,60.90
2018-02-07T16:02:03.959Z,61.30
2018-02-07T16:04:32.150Z,61.40
2018-02-07T16:07:01.140Z,61.50
2018-02-07T16:09:29.391Z,61.40
2018-02-07T16:11:57.576Z,61.50
2018-02-07T16:14:25.783Z,62.20
2018-02-07T16:16:54.007Z,63.40
2018-02-07T16:19:22.209Z,63.00
2018-02-07T16:21:50.418Z,62.70
2018-02-07T16:24:19.381Z,63.40
2018-02-07T16:26:48.357Z,63.70
2018-02-07T16:29:16.708Z,63.70
2018-02-07T16:31:45.053Z,64.30
2018-02-07T16:34:14.077Z,65.50
2018-02-07T16:36:42.896Z,65.50
2018-02-07T16:39:11.096Z,66.00
2018-02-07T16:41:41.484Z,67.10
2018-02-07T16:44:11.135Z,67.00
2018-02-07T16:46:40.095Z,67.80
2018-02-07T16:49:09.402Z,67.10
2018-02-07T16:51:37.617Z,67.30
2018-02-07T16:54:06.621Z,67.50
2018-02-07T16:56:34.964Z,67.40
2018-02-07T16:59:03.164Z,67.40
2018-02-07T17:01:32.137Z,67.20
2018-02-07T17:04:00.370Z,67.00
2018-02-07T17:06:28.614Z,67.00
2018-02-07T17:08:57.629Z,67.70
2018-02-07T17:11:26.618Z,67.60
2018-02-07T17:13:54.866Z,67.60
2018-02-07T17:16:23.829Z,67.70
2018-02-07T17:18:52.046Z,67.60
2018-02-07T17:21:20.475Z,67.60
2018-02-07T17:23:48.684Z,67.70
2018-02-07T17:26:17.733Z,67.50
2018-02-07T17:28:45.951Z,67.50
2018-02-07T17:31:14.945Z,67.20
2018-02-07T17:33:43.137Z,67.20
2018-02-07T17:36:12.139Z,67.40
2018-02-07T17:38:41.100Z,67.60
2018-02-07T17:41:10.093Z,67.60
2018-02-07T17:43:38.291Z,67.60
2018-02-07T17:46:06.538Z,67.90
2018-02-07T17:48:34.752Z,68.10
2018-02-07T17:51:03.971Z,68.50
2018-02-07T17:53:32.204Z,68.40
2018-02-07T17:56:01.897Z,69.50
2018-02-07T17:58:30.146Z,68.70
2018-02-07T18:01:00.062Z,68.70
2018-02-07T18:03:28.289Z,68.70
2018-02-07T18:05:56.478Z,69.20
2018-02-07T18:08:25.429Z,69.10
2018-02-07T18:10:53.654Z,69.10
2018-02-07T18:13:22.783Z,68.50
2018-02-07T18:15:50.941Z,68.50
2018-02-07T18:18:19.185Z,68.80
2018-02-07T18:20:48.187Z,70.00
2018-02-07T18:23:16.865Z,69.90
2018-02-07T18:25:46.008Z,71.30
2018-02-07T18:28:14.225Z,71.20
2018-02-07T18:30:42.401Z,71.20
2018-02-07T18:33:11.415Z,71.70
2018-02-07T18:35:40.419Z,72.20
2018-02-07T18:38:08.684Z,72.20
2018-02-07T18:40:37.674Z,75.00
2018-02-07T18:43:05.871Z,75.00
2018-02-07T18:45:34.855Z,76.90
2018-02-07T18:48:03.849Z,77.40
2018-02-07T18:50:32.853Z,77.40
2018-02-07T18:53:01.084Z,77.40
2018-02-07T18:55:29.320Z,77.40
2018-02-07T18:57:57.542Z,78.30
2018-02-07T19:00:25.786Z,79.00
2018-02-07T19:02:53.973Z,79.10
2018-02-07T19:05:22.907Z,78.70
2018-02-07T19:07:51.877Z,78.80
2018-02-07T19:10:20.112Z,78.80
2018-02-07T19:12:48.343Z,78.90
2018-02-07T19:15:16.538Z,78.80
2018-02-07T19:17:45.506Z,79.20
2018-02-07T19:20:14.099Z,79.00
2018-02-07T19:22:42.413Z,79.30
2018-02-07T19:25:10.647Z,79.40
2018-02-07T19:27:39.743Z,78.50
2018-02-07T19:30:13.623Z,78.50
2018-02-07T19:32:41.832Z,78.50
2018-02-07T19:35:10.192Z,79.00
2018-02-07T19:37:38.458Z,78.90
2018-02-07T19:40:06.704Z,78.80
2018-02-07T19:42:34.907Z,79.80
2018-02-07T19:45:03.121Z,80.40
2018-02-07T19:47:31.345Z,80.50
2018-02-07T19:49:59.619Z,80.50
2018-02-07T19:52:27.850Z,81.00
2018-02-07T19:54:56.178Z,81.90
2018-02-07T19:57:24.665Z,82.50
2018-02-07T19:59:52.901Z,82.80
2018-02-07T20:02:22.138Z,82.80
2018-02-07T20:04:50.349Z,82.70
2018-02-07T20:07:18.585Z,83.40
2018-02-07T20:09:46.978Z,82.50
2018-02-07T20:12:15.188Z,82.60
2018-02-07T20:14:43.415Z,82.60
2018-02-07T20:17:11.618Z,84.50
2018-02-07T20:19:39.883Z,84.20
2018-02-07T20:22:08.137Z,83.90
2018-02-07T20:24:36.393Z,84.70
2018-02-07T20:27:04.621Z,84.50
2018-02-07T20:29:32.851Z,84.40
2018-02-07T20:32:01.098Z,84.80
2018-02-07T20:34:29.499Z,84.70
2018-02-07T20:36:57.733Z,84.90
2018-02-07T20:39:26.398Z,84.60
2018-02-07T20:41:55.474Z,84.50
2018-02-07T20:44:23.723Z,84.50
2018-02-07T20:46:52.048Z,84.40
2018-02-07T20:49:20.246Z,84.20
2018-02-07T20:51:48.709Z,84.10
2018-02-07T20:54:16.944Z,84.70
2018-02-07T20:56:45.930Z,85.60
2018-02-07T20:59:14.132Z,85.50
2018-02-07T21:01:42.352Z,84.50
2018-02-07T21:04:10.569Z,84.00
2018-02-07T21:06:39.539Z,83.60
2018-02-07T21:09:09.409Z,83.60
2018-02-07T21:11:37.656Z,83.40
2018-02-07T21:14:06.624Z,83.10
2018-02-07T21:16:34.838Z,83.10
2018-02-07T21:19:03.104Z,83.00
2018-02-07T21:21:32.935Z,83.00
2018-02-07T21:24:01.169Z,83.00
2018-02-07T21:26:29.424Z,83.00
2018-02-07T21:28:57.652Z,83.50
2018-02-07T21:31:25.888Z,84.00
2018-02-07T21:33:54.435Z,84.00
2018-02-07T21:36:22.746Z,84.00
2018-02-07T21:38:50.942Z,83.80
2018-02-07T21:41:19.907Z,84.40
2018-02-07T21:43:48.114Z,83.60
2018-02-07T21:46:16.369Z,84.10
2018-02-07T21:48:50.146Z,84.10
2018-02-07T21:51:18.360Z,84.80
2018-02-07T21:53:46.609Z,85.00
2018-02-07T21:56:14.827Z,83.60
2018-02-07T21:58:43.803Z,84.30
2018-02-07T22:01:11.989Z,84.20
2018-02-07T22:03:40.205Z,85.30
2018-02-07T22:06:08.383Z,84.70
2018-02-07T22:08:36.590Z,84.50
2018-02-07T22:11:04.767Z,84.30
2018-02-07T22:13:32.963Z,84.10
2018-02-07T22:16:01.182Z,83.80
2018-02-07T22:18:29.373Z,82.70
2018-02-07T22:20:57.556Z,82.70
2018-02-07T22:23:25.746Z,82.90
2018-02-07T22:25:53.998Z,83.20
2018-02-07T22:28:22.216Z,83.40
2018-02-07T22:30:50.396Z,84.10
2018-02-07T22:33:19.427Z,85.00
2018-02-07T22:35:47.608Z,85.00
2018-02-07T22:38:15.809Z,85.40
2018-02-07T22:40:44.026Z,85.10
2018-02-07T22:43:12.380Z,85.10
2018-02-07T22:45:40.592Z,85.00
2018-02-07T22:48:08.802Z,84.50
2018-02-07T22:50:37.000Z,84.30
2018-02-07T22:53:06.726Z,83.80
2018-02-07T22:55:34.909Z,83.80
2018-02-07T22:58:03.121Z,84.00
2018-02-07T23:00:32.086Z,84.60
2018-02-07T23:03:01.048Z,86.10
2018-02-07T23:05:29.375Z,86.10
2018-02-07T23:07:57.551Z,86.10
2018-02-07T23:10:25.732Z,86.60
2018-02-07T23:12:53.957Z,86.40
2018-02-07T23:15:22.125Z,85.90
2018-02-07T23:17:50.337Z,85.80
2018-02-07T23:20:19.474Z,85.00
2018-02-07T23:22:47.682Z,85.00
2018-02-07T23:25:15.880Z,84.30
2018-02-07T23:27:44.858Z,84.60
2018-02-07T23:30:13.079Z,83.90
2018-02-07T23:32:41.297Z,84.10
2018-02-07T23:35:09.497Z,84.00
2018-02-07T23:37:38.515Z,83.90
2018-02-07T23:40:06.742Z,83.80
2018-02-07T23:42:35.714Z,83.40
2018-02-07T23:45:03.922Z,83.40
2018-02-07T23:47:32.159Z,82.90
2018-02-07T23:50:00.446Z,82.60
2018-02-07T23:52:28.626Z,82.70
2018-02-07T23:54:56.821Z,82.60
2018-02-07T23:57:25.033Z,82.40
2018-02-07T23:59:53.996Z,82.80
